sensor_id;sensor_type;location;lat;lon;timestamp;pressure;altitude;pressure_sealevel;temperature;humidity
59951;BME280;45812;53.540;9.774;2023-12-22T00:01:26;98911.97;;;3.68;100.00
59951;BME280;45812;53.540;9.774;2023-12-22T00:03:52;98916.22;;;3.69;100.00
59951;BME280;45812;53.540;9.774;2023-12-22T00:06:17;98911.97;;;3.68;100.00
59951;BME280;45812;53.540;9.774;2023-12-22T00:08:42;98927.56;;;3.70;100.00
59951;BME280;45812;53.540;9.774;2023-12-22T00:11:07;98930.72;;;3.73;100.00
59951;BME280;45812;53.540;9.774;2023-12-22T00:13:33;98915.94;;;3.72;100.00
59951;BME280;45812;53.540;9.774;2023-12-22T00:15:59;98916.72;;;3.64;100.00
59951;BME280;45812;53.540;9.774;2023-12-22T00:18:25;98918.38;;;3.65;100.00
59951;BME280;45812;53.540;9.774;2023-12-22T00:20:51;98918.38;;;3.65;100.00
59951;BME280;45812;53.540;9.774;2023-12-22T00:23:16;98929.22;;;3.62;100.00
59951;BME280;45812;53.540;9.774;2023-12-22T00:25:41;98931.53;;;3.57;100.00
59951;BME280;45812;53.540;9.774;2023-12-22T00:28:06;98924.81;;;3.55;100.00
59951;BME280;45812;53.540;9.774;2023-12-22T00:30:32;98927.25;;;3.56;100.00
59951;BME280;45812;53.540;9.774;2023-12-22T00:32:57;98948.78;;;3.52;100.00
59951;BME280;45812;53.540;9.774;2023-12-22T00:35:22;98940.56;;;3.47;100.00
59951;BME280;45812;53.540;9.774;2023-12-22T00:37:47;98935.63;;;3.36;100.00
59951;BME280;45812;53.540;9.774;2023-12-22T00:40:12;98930.69;;;3.41;100.00
59951;BME280;45812;53.540;9.774;2023-12-22T00:42:39;98927.91;;;3.42;100.00
59951;BME280;45812;53.540;9.774;2023-12-22T00:45:04;98923.63;;;3.41;100.00
59951;BME280;45812;53.540;9.774;2023-12-22T00:47:30;98931.03;;;3.46;100.00
59951;BME280;45812;53.540;9.774;2023-12-22T00:49:55;98924.94;;;3.45;100.00
59951;BME280;45812;53.540;9.774;2023-12-22T00:52:20;98948.91;;;3.34;100.00
59951;BME280;45812;53.540;9.774;2023-12-22T00:54:45;98925.56;;;3.23;100.00
59951;BME280;45812;53.540;9.774;2023-12-22T00:57:11;98930.97;;;3.13;100.00
59951;BME280;45812;53.540;9.774;2023-12-22T00:59:37;98911.41;;;3.08;100.00
59951;BME280;45812;53.540;9.774;2023-12-22T01:02:02;98945.59;;;3.08;100.00
59951;BME280;45812;53.540;9.774;2023-12-22T01:04:27;98953.63;;;3.06;100.00
59951;BME280;45812;53.540;9.774;2023-12-22T01:06:53;98945.25;;;3.11;100.00
59951;BME280;45812;53.540;9.774;2023-12-22T01:09:18;98945.75;;;3.06;100.00
59951;BME280;45812;53.540;9.774;2023-12-22T01:11:45;98933.41;;;2.98;100.00
59951;BME280;45812;53.540;9.774;2023-12-22T01:14:10;98961.63;;;2.96;100.00
59951;BME280;45812;53.540;9.774;2023-12-22T01:16:36;98957.50;;;2.86;100.00
59951;BME280;45812;53.540;9.774;2023-12-22T01:19:01;98960.13;;;2.86;100.00
59951;BME280;45812;53.540;9.774;2023-12-22T01:21:26;98980.84;;;2.89;100.00
59951;BME280;45812;53.540;9.774;2023-12-22T01:23:51;98985.94;;;2.90;100.00
59951;BME280;45812;53.540;9.774;2023-12-22T01:26:17;98972.28;;;2.87;100.00
59951;BME280;45812;53.540;9.774;2023-12-22T01:28:42;98958.66;;;2.91;100.00
59951;BME280;45812;53.540;9.774;2023-12-22T01:31:07;98958.50;;;2.93;100.00
59951;BME280;45812;53.540;9.774;2023-12-22T01:33:32;98988.91;;;2.95;100.00
59951;BME280;45812;53.540;9.774;2023-12-22T01:35:58;99010.47;;;2.99;100.00
59951;BME280;45812;53.540;9.774;2023-12-22T01:38:23;98979.06;;;2.97;100.00
59951;BME280;45812;53.540;9.774;2023-12-22T01:40:48;98979.91;;;2.98;100.00
59951;BME280;45812;53.540;9.774;2023-12-22T01:43:14;99010.47;;;2.99;100.00
59951;BME280;45812;53.540;9.774;2023-12-22T01:45:39;99013.22;;;2.97;100.00
59951;BME280;45812;53.540;9.774;2023-12-22T01:48:08;99004.38;;;2.98;100.00
59951;BME280;45812;53.540;9.774;2023-12-22T01:50:34;99015.03;;;2.97;100.00
59951;BME280;45812;53.540;9.774;2023-12-22T01:53:01;98986.59;;;2.92;100.00
59951;BME280;45812;53.540;9.774;2023-12-22T01:55:26;99002.19;;;2.94;100.00
59951;BME280;45812;53.540;9.774;2023-12-22T01:57:52;98995.13;;;2.94;100.00
59951;BME280;45812;53.540;9.774;2023-12-22T02:00:17;98989.13;;;3.02;100.00
59951;BME280;45812;53.540;9.774;2023-12-22T02:02:43;99003.56;;;3.06;100.00
59951;BME280;45812;53.540;9.774;2023-12-22T02:05:09;98994.53;;;3.00;100.00
59951;BME280;45812;53.540;9.774;2023-12-22T02:07:37;98982.53;;;2.98;100.00
59951;BME280;45812;53.540;9.774;2023-12-22T02:10:06;98981.50;;;2.91;100.00
59951;BME280;45812;53.540;9.774;2023-12-22T02:12:31;98979.50;;;2.85;100.00
59951;BME280;45812;53.540;9.774;2023-12-22T02:14:56;98990.50;;;2.80;100.00
59951;BME280;45812;53.540;9.774;2023-12-22T02:17:27;98987.19;;;2.78;100.00
59951;BME280;45812;53.540;9.774;2023-12-22T02:19:56;98986.50;;;2.68;100.00
59951;BME280;45812;53.540;9.774;2023-12-22T02:22:23;98993.41;;;2.69;100.00
59951;BME280;45812;53.540;9.774;2023-12-22T02:24:48;99000.94;;;2.64;100.00
59951;BME280;45812;53.540;9.774;2023-12-22T02:27:37;98974.97;;;2.61;100.00
59951;BME280;45812;53.540;9.774;2023-12-22T02:32:35;98952.59;;;2.57;100.00
59951;BME280;45812;53.540;9.774;2023-12-22T02:35:03;98948.34;;;2.56;100.00
59951;BME280;45812;53.540;9.774;2023-12-22T02:37:30;98933.25;;;2.58;100.00
59951;BME280;45812;53.540;9.774;2023-12-22T02:39:58;98965.59;;;2.58;100.00
59951;BME280;45812;53.540;9.774;2023-12-22T02:42:23;98943.31;;;2.62;100.00
59951;BME280;45812;53.540;9.774;2023-12-22T02:44:55;98909.00;;;2.64;100.00
59951;BME280;45812;53.540;9.774;2023-12-22T02:47:20;98919.19;;;2.75;100.00
59951;BME280;45812;53.540;9.774;2023-12-22T02:49:46;98904.47;;;2.82;100.00
59951;BME280;45812;53.540;9.774;2023-12-22T02:52:11;98904.31;;;2.84;100.00
59951;BME280;45812;53.540;9.774;2023-12-22T02:54:36;98933.06;;;2.93;100.00
59951;BME280;45812;53.540;9.774;2023-12-22T02:57:04;98967.22;;;2.59;100.00
59951;BME280;45812;53.540;9.774;2023-12-22T02:59:30;98985.69;;;2.41;100.00
59951;BME280;45812;53.540;9.774;2023-12-22T03:01:55;98994.84;;;2.37;100.00
59951;BME280;45812;53.540;9.774;2023-12-22T03:04:20;98997.00;;;2.16;100.00
59951;BME280;45812;53.540;9.774;2023-12-22T03:06:45;99013.25;;;1.94;100.00
59951;BME280;45812;53.540;9.774;2023-12-22T03:09:11;98996.03;;;1.73;100.00
59951;BME280;45812;53.540;9.774;2023-12-22T03:11:36;99011.66;;;1.65;100.00
59951;BME280;45812;53.540;9.774;2023-12-22T03:14:01;98998.84;;;1.62;100.00
59951;BME280;45812;53.540;9.774;2023-12-22T03:16:27;98994.13;;;1.66;100.00
59951;BME280;45812;53.540;9.774;2023-12-22T03:18:52;98987.47;;;1.71;100.00
59951;BME280;45812;53.540;9.774;2023-12-22T03:21:18;98997.50;;;1.76;100.00
59951;BME280;45812;53.540;9.774;2023-12-22T03:23:44;98997.38;;;1.77;100.00
59951;BME280;45812;53.540;9.774;2023-12-22T03:26:09;98999.31;;;1.75;100.00
59951;BME280;45812;53.540;9.774;2023-12-22T03:28:34;98997.81;;;1.73;100.00
59951;BME280;45812;53.540;9.774;2023-12-22T03:31:00;98992.13;;;1.77;100.00
59951;BME280;45812;53.540;9.774;2023-12-22T03:33:25;98981.97;;;1.82;100.00
59951;BME280;45812;53.540;9.774;2023-12-22T03:35:50;98975.84;;;1.92;100.00
59951;BME280;45812;53.540;9.774;2023-12-22T03:38:15;98990.00;;;1.99;100.00
59951;BME280;45812;53.540;9.774;2023-12-22T03:40:41;98985.50;;;2.09;100.00
59951;BME280;45812;53.540;9.774;2023-12-22T03:43:06;98987.28;;;2.08;100.00
59951;BME280;45812;53.540;9.774;2023-12-22T03:45:31;98980.25;;;2.09;100.00
59951;BME280;45812;53.540;9.774;2023-12-22T03:47:56;98986.31;;;2.09;100.00
59951;BME280;45812;53.540;9.774;2023-12-22T03:50:22;98980.91;;;2.11;100.00
59951;BME280;45812;53.540;9.774;2023-12-22T03:52:47;98983.06;;;2.16;100.00
59951;BME280;45812;53.540;9.774;2023-12-22T03:55:12;98987.84;;;2.20;100.00
59951;BME280;45812;53.540;9.774;2023-12-22T03:57:37;98980.94;;;2.19;100.00
59951;BME280;45812;53.540;9.774;2023-12-22T04:00:03;98982.66;;;2.28;100.00
59951;BME280;45812;53.540;9.774;2023-12-22T04:02:29;98972.31;;;2.27;100.00
59951;BME280;45812;53.540;9.774;2023-12-22T04:04:54;98980.34;;;2.25;100.00
59951;BME280;45812;53.540;9.774;2023-12-22T04:07:19;98980.94;;;2.19;100.00
59951;BME280;45812;53.540;9.774;2023-12-22T04:09:45;98983.88;;;2.16;100.00
59951;BME280;45812;53.540;9.774;2023-12-22T04:12:10;98997.22;;;2.23;100.00
59951;BME280;45812;53.540;9.774;2023-12-22T04:14:35;98980.28;;;2.17;100.00
59951;BME280;45812;53.540;9.774;2023-12-22T04:17:00;98989.81;;;2.18;100.00
59951;BME280;45812;53.540;9.774;2023-12-22T04:19:26;98985.53;;;2.17;100.00
59951;BME280;45812;53.540;9.774;2023-12-22T04:21:51;98989.97;;;2.17;100.00
59951;BME280;45812;53.540;9.774;2023-12-22T04:24:16;98977.50;;;2.19;100.00
59951;BME280;45812;53.540;9.774;2023-12-22T04:26:41;98998.50;;;2.19;100.00
59951;BME280;45812;53.540;9.774;2023-12-22T04:29:07;98988.38;;;2.24;100.00
59951;BME280;45812;53.540;9.774;2023-12-22T04:31:32;98985.78;;;2.32;100.00
59951;BME280;45812;53.540;9.774;2023-12-22T04:33:57;98995.34;;;2.41;100.00
59951;BME280;45812;53.540;9.774;2023-12-22T04:36:22;98988.53;;;2.48;100.00
59951;BME280;45812;53.540;9.774;2023-12-22T04:38:48;98976.72;;;2.52;100.00
59951;BME280;45812;53.540;9.774;2023-12-22T04:41:13;98983.78;;;2.52;100.00
59951;BME280;45812;53.540;9.774;2023-12-22T04:43:38;98979.69;;;2.57;100.00
59951;BME280;45812;53.540;9.774;2023-12-22T04:46:03;98978.88;;;2.57;100.00
59951;BME280;45812;53.540;9.774;2023-12-22T04:48:29;98989.06;;;2.60;100.00
59951;BME280;45812;53.540;9.774;2023-12-22T04:50:54;98971.72;;;2.67;100.00
59951;BME280;45812;53.540;9.774;2023-12-22T04:53:19;98970.09;;;2.74;100.00
59951;BME280;45812;53.540;9.774;2023-12-22T04:55:45;98969.81;;;2.85;100.00
59951;BME280;45812;53.540;9.774;2023-12-22T04:58:10;98956.03;;;2.91;100.00
59951;BME280;45812;53.540;9.774;2023-12-22T05:00:35;98971.00;;;2.91;100.00
59951;BME280;45812;53.540;9.774;2023-12-22T05:03:00;98954.91;;;2.94;100.00
59951;BME280;45812;53.540;9.774;2023-12-22T05:05:25;98964.13;;;2.98;100.00
59951;BME280;45812;53.540;9.774;2023-12-22T05:07:51;98977.13;;;2.99;100.00
59951;BME280;45812;53.540;9.774;2023-12-22T05:10:16;98964.63;;;3.01;100.00
59951;BME280;45812;53.540;9.774;2023-12-22T05:12:41;98969.56;;;3.04;100.00
59951;BME280;45812;53.540;9.774;2023-12-22T05:15:07;98985.50;;;3.03;100.00
59951;BME280;45812;53.540;9.774;2023-12-22T05:17:32;98995.19;;;3.02;100.00
59951;BME280;45812;53.540;9.774;2023-12-22T05:19:58;99012.78;;;3.10;100.00
59951;BME280;45812;53.540;9.774;2023-12-22T05:22:23;99003.72;;;3.04;100.00
59951;BME280;45812;53.540;9.774;2023-12-22T05:24:48;99008.09;;;2.88;100.00
59951;BME280;45812;53.540;9.774;2023-12-22T05:27:13;99004.88;;;2.68;100.00
59951;BME280;45812;53.540;9.774;2023-12-22T05:29:39;99005.19;;;2.65;100.00
59951;BME280;45812;53.540;9.774;2023-12-22T05:32:05;99018.84;;;2.68;100.00
59951;BME280;45812;53.540;9.774;2023-12-22T05:34:30;98999.66;;;2.76;100.00
59951;BME280;45812;53.540;9.774;2023-12-22T05:36:56;99001.31;;;2.77;100.00
59951;BME280;45812;53.540;9.774;2023-12-22T05:39:21;98986.38;;;2.78;100.00
59951;BME280;45812;53.540;9.774;2023-12-22T05:41:46;99021.22;;;2.80;100.00
59951;BME280;45812;53.540;9.774;2023-12-22T05:44:12;99024.66;;;2.80;100.00
59951;BME280;45812;53.540;9.774;2023-12-22T05:46:37;99054.22;;;2.82;100.00
59951;BME280;45812;53.540;9.774;2023-12-22T05:49:03;99027.28;;;2.80;100.00
59951;BME280;45812;53.540;9.774;2023-12-22T05:51:29;99049.56;;;2.76;100.00
59951;BME280;45812;53.540;9.774;2023-12-22T05:53:54;99055.81;;;2.75;100.00
59951;BME280;45812;53.540;9.774;2023-12-22T05:56:20;99076.16;;;2.73;100.00
59951;BME280;45812;53.540;9.774;2023-12-22T05:58:46;99079.41;;;2.67;100.00
59951;BME280;45812;53.540;9.774;2023-12-22T06:01:15;99075.97;;;2.66;100.00
59951;BME280;45812;53.540;9.774;2023-12-22T06:03:41;99113.22;;;2.62;100.00
59951;BME280;45812;53.540;9.774;2023-12-22T06:06:06;99051.28;;;2.59;100.00
59951;BME280;45812;53.540;9.774;2023-12-22T06:08:31;99037.78;;;2.54;100.00
59951;BME280;45812;53.540;9.774;2023-12-22T06:10:56;99038.88;;;2.43;100.00
59951;BME280;45812;53.540;9.774;2023-12-22T06:13:22;99058.50;;;2.31;100.00
59951;BME280;45812;53.540;9.774;2023-12-22T06:15:49;99050.59;;;2.31;100.00
59951;BME280;45812;53.540;9.774;2023-12-22T06:18:14;99047.38;;;2.37;100.00
59951;BME280;45812;53.540;9.774;2023-12-22T06:20:39;99053.13;;;2.41;100.00
59951;BME280;45812;53.540;9.774;2023-12-22T06:23:04;99096.34;;;2.47;100.00
59951;BME280;45812;53.540;9.774;2023-12-22T06:25:30;99085.06;;;2.54;100.00
59951;BME280;45812;53.540;9.774;2023-12-22T06:27:55;99098.13;;;2.64;100.00
59951;BME280;45812;53.540;9.774;2023-12-22T06:30:20;99123.44;;;2.73;100.00
59951;BME280;45812;53.540;9.774;2023-12-22T06:32:45;99113.25;;;2.70;100.00
59951;BME280;45812;53.540;9.774;2023-12-22T06:35:11;99133.69;;;2.58;100.00
59951;BME280;45812;53.540;9.774;2023-12-22T06:37:36;99107.31;;;2.42;100.00
59951;BME280;45812;53.540;9.774;2023-12-22T06:40:01;99103.94;;;2.32;100.00
59951;BME280;45812;53.540;9.774;2023-12-22T06:42:27;99104.56;;;2.26;100.00
59951;BME280;45812;53.540;9.774;2023-12-22T06:44:52;99105.81;;;2.22;100.00
59951;BME280;45812;53.540;9.774;2023-12-22T06:47:17;99101.38;;;2.22;100.00
59951;BME280;45812;53.540;9.774;2023-12-22T06:49:43;99094.72;;;2.28;100.00
59951;BME280;45812;53.540;9.774;2023-12-22T06:52:09;99114.44;;;2.32;100.00
59951;BME280;45812;53.540;9.774;2023-12-22T06:54:35;99106.03;;;2.46;100.00
59951;BME280;45812;53.540;9.774;2023-12-22T06:57:00;99124.63;;;2.53;100.00
59951;BME280;45812;53.540;9.774;2023-12-22T06:59:25;99140.84;;;2.48;100.00
59951;BME280;45812;53.540;9.774;2023-12-22T07:01:50;99162.75;;;2.39;100.00
59951;BME280;45812;53.540;9.774;2023-12-22T07:04:16;99144.16;;;2.32;100.00
59951;BME280;45812;53.540;9.774;2023-12-22T07:06:41;99145.72;;;2.25;100.00
59951;BME280;45812;53.540;9.774;2023-12-22T07:11:42;99142.13;;;2.26;100.00
59951;BME280;45812;53.540;9.774;2023-12-22T07:14:08;99146.09;;;2.30;100.00
59951;BME280;45812;53.540;9.774;2023-12-22T07:16:34;99151.03;;;2.33;100.00
59951;BME280;45812;53.540;9.774;2023-12-22T07:18:59;99151.25;;;2.40;100.00
59951;BME280;45812;53.540;9.774;2023-12-22T07:21:25;99153.66;;;2.51;100.00
59951;BME280;45812;53.540;9.774;2023-12-22T07:23:51;99164.38;;;2.58;100.00
59951;BME280;45812;53.540;9.774;2023-12-22T07:26:16;99163.47;;;2.67;100.00
59951;BME280;45812;53.540;9.774;2023-12-22T07:28:41;99153.34;;;2.72;100.00
59951;BME280;45812;53.540;9.774;2023-12-22T07:31:07;99164.59;;;2.82;100.00
59951;BME280;45812;53.540;9.774;2023-12-22T07:33:32;99219.81;;;2.90;100.00
59951;BME280;45812;53.540;9.774;2023-12-22T07:35:58;99273.03;;;2.92;100.00
59951;BME280;45812;53.540;9.774;2023-12-22T07:38:23;99234.63;;;2.73;100.00
59951;BME280;45812;53.540;9.774;2023-12-22T07:40:48;99244.97;;;2.57;100.00
59951;BME280;45812;53.540;9.774;2023-12-22T07:43:14;99244.44;;;2.36;100.00
59951;BME280;45812;53.540;9.774;2023-12-22T07:45:40;99251.91;;;2.13;100.00
59951;BME280;45812;53.540;9.774;2023-12-22T07:48:05;99260.53;;;2.05;100.00
59951;BME280;45812;53.540;9.774;2023-12-22T07:50:30;99259.81;;;2.03;100.00
59951;BME280;45812;53.540;9.774;2023-12-22T07:52:55;99264.94;;;2.05;100.00
59951;BME280;45812;53.540;9.774;2023-12-22T07:55:21;99248.78;;;2.00;100.00
59951;BME280;45812;53.540;9.774;2023-12-22T07:57:46;99270.31;;;2.03;100.00
59951;BME280;45812;53.540;9.774;2023-12-22T08:00:12;99277.94;;;2.06;100.00
59951;BME280;45812;53.540;9.774;2023-12-22T08:02:37;99275.53;;;2.13;100.00
59951;BME280;45812;53.540;9.774;2023-12-22T08:05:03;99277.97;;;2.24;100.00
59951;BME280;45812;53.540;9.774;2023-12-22T08:07:29;99270.03;;;2.34;100.00
59951;BME280;45812;53.540;9.774;2023-12-22T08:09:56;99251.28;;;2.47;100.00
59951;BME280;45812;53.540;9.774;2023-12-22T08:12:21;99253.53;;;2.59;100.00
59951;BME280;45812;53.540;9.774;2023-12-22T08:14:47;99241.78;;;2.63;100.00
59951;BME280;45812;53.540;9.774;2023-12-22T08:17:12;99245.59;;;2.69;100.00
59951;BME280;45812;53.540;9.774;2023-12-22T08:19:38;99262.94;;;2.80;100.00
59951;BME280;45812;53.540;9.774;2023-12-22T08:22:04;99273.03;;;2.92;100.00
59951;BME280;45812;53.540;9.774;2023-12-22T08:24:29;99316.22;;;2.90;100.00
59951;BME280;45812;53.540;9.774;2023-12-22T08:26:54;99311.88;;;2.98;100.00
59951;BME280;45812;53.540;9.774;2023-12-22T08:29:19;99335.75;;;2.87;100.00
59951;BME280;45812;53.540;9.774;2023-12-22T08:31:45;99309.00;;;2.74;100.00
59951;BME280;45812;53.540;9.774;2023-12-22T08:34:10;99310.06;;;2.63;100.00
59951;BME280;45812;53.540;9.774;2023-12-22T08:36:35;99296.69;;;2.57;100.00
59951;BME280;45812;53.540;9.774;2023-12-22T08:39:01;99302.91;;;2.56;100.00
59951;BME280;45812;53.540;9.774;2023-12-22T08:41:26;99307.50;;;2.54;100.00
59951;BME280;45812;53.540;9.774;2023-12-22T08:43:52;99310.41;;;2.51;100.00
59951;BME280;45812;53.540;9.774;2023-12-22T08:46:17;99298.47;;;2.56;100.00
59951;BME280;45812;53.540;9.774;2023-12-22T08:48:43;99310.50;;;2.59;100.00
59951;BME280;45812;53.540;9.774;2023-12-22T08:51:08;99347.06;;;2.70;100.00
59951;BME280;45812;53.540;9.774;2023-12-22T08:53:34;99347.13;;;2.78;100.00
59951;BME280;45812;53.540;9.774;2023-12-22T08:56:02;99329.66;;;2.69;100.00
59951;BME280;45812;53.540;9.774;2023-12-22T08:58:28;99330.81;;;2.57;100.00
59951;BME280;45812;53.540;9.774;2023-12-22T09:00:54;99344.19;;;2.46;100.00
59951;BME280;45812;53.540;9.774;2023-12-22T09:03:19;99349.28;;;2.47;100.00
59951;BME280;45812;53.540;9.774;2023-12-22T09:05:44;99336.38;;;2.54;100.00
59951;BME280;45812;53.540;9.774;2023-12-22T09:08:10;99338.72;;;2.57;100.00
59951;BME280;45812;53.540;9.774;2023-12-22T09:10:35;99343.09;;;2.66;100.00
59951;BME280;45812;53.540;9.774;2023-12-22T09:13:00;99354.19;;;2.78;100.00
59951;BME280;45812;53.540;9.774;2023-12-22T09:15:25;99353.31;;;2.87;100.00
59951;BME280;45812;53.540;9.774;2023-12-22T09:17:51;99362.25;;;2.94;100.00
59951;BME280;45812;53.540;9.774;2023-12-22T09:20:18;99353.78;;;3.00;100.00
59951;BME280;45812;53.540;9.774;2023-12-22T09:22:43;99354.38;;;3.12;100.00
59951;BME280;45812;53.540;9.774;2023-12-22T09:25:08;99351.75;;;3.12;100.00
59951;BME280;45812;53.540;9.774;2023-12-22T09:27:34;99360.31;;;3.14;100.00
59951;BME280;45812;53.540;9.774;2023-12-22T09:29:59;99338.28;;;3.15;100.00
59951;BME280;45812;53.540;9.774;2023-12-22T09:32:24;99354.81;;;3.25;100.00
59951;BME280;45812;53.540;9.774;2023-12-22T09:34:49;99355.88;;;3.32;99.97
59951;BME280;45812;53.540;9.774;2023-12-22T09:37:15;99352.09;;;3.34;100.00
59951;BME280;45812;53.540;9.774;2023-12-22T09:39:40;99352.81;;;3.37;100.00
59951;BME280;45812;53.540;9.774;2023-12-22T09:42:05;99365.19;;;3.44;100.00
59951;BME280;45812;53.540;9.774;2023-12-22T09:44:32;99367.13;;;3.42;99.17
59951;BME280;45812;53.540;9.774;2023-12-22T09:46:58;99356.47;;;3.44;100.00
59951;BME280;45812;53.540;9.774;2023-12-22T09:49:24;99365.22;;;3.52;98.33
59951;BME280;45812;53.540;9.774;2023-12-22T09:51:50;99351.22;;;3.70;97.45
59951;BME280;45812;53.540;9.774;2023-12-22T09:54:16;99347.31;;;4.00;98.69
59951;BME280;45812;53.540;9.774;2023-12-22T09:56:42;99347.91;;;4.19;93.49
59951;BME280;45812;53.540;9.774;2023-12-22T09:59:11;99352.91;;;4.31;92.79
59951;BME280;45812;53.540;9.774;2023-12-22T10:01:43;99343.72;;;4.43;95.93
59951;BME280;45812;53.540;9.774;2023-12-22T10:04:09;99384.94;;;4.52;94.60
59951;BME280;45812;53.540;9.774;2023-12-22T10:06:35;99346.72;;;4.48;95.76
59951;BME280;45812;53.540;9.774;2023-12-22T10:09:01;99352.75;;;4.40;96.49
59951;BME280;45812;53.540;9.774;2023-12-22T10:11:31;99375.47;;;4.33;96.60
59951;BME280;45812;53.540;9.774;2023-12-22T10:13:59;99360.13;;;4.29;97.86
59951;BME280;45812;53.540;9.774;2023-12-22T10:16:24;99359.31;;;4.28;99.76
59951;BME280;45812;53.540;9.774;2023-12-22T10:18:50;99370.69;;;4.37;100.00
59951;BME280;45812;53.540;9.774;2023-12-22T10:21:16;99362.13;;;4.35;97.84
59951;BME280;45812;53.540;9.774;2023-12-22T10:23:41;99355.63;;;4.21;98.89
59951;BME280;45812;53.540;9.774;2023-12-22T10:26:06;99355.31;;;4.24;98.43
59951;BME280;45812;53.540;9.774;2023-12-22T10:28:33;99343.97;;;4.23;99.45
59951;BME280;45812;53.540;9.774;2023-12-22T10:30:58;99354.34;;;4.25;98.98
59951;BME280;45812;53.540;9.774;2023-12-22T10:33:29;99345.97;;;4.30;99.56
59951;BME280;45812;53.540;9.774;2023-12-22T10:35:55;99365.41;;;4.29;100.00
59951;BME280;45812;53.540;9.774;2023-12-22T10:38:20;99373.00;;;4.06;100.00
59951;BME280;45812;53.540;9.774;2023-12-22T10:40:46;99378.28;;;3.80;100.00
59951;BME280;45812;53.540;9.774;2023-12-22T10:43:12;99346.63;;;3.72;100.00
59951;BME280;45812;53.540;9.774;2023-12-22T10:45:40;99367.63;;;3.63;100.00
59951;BME280;45812;53.540;9.774;2023-12-22T10:48:06;99385.06;;;3.64;100.00
59951;BME280;45812;53.540;9.774;2023-12-22T10:50:31;99375.03;;;3.42;100.00
59951;BME280;45812;53.540;9.774;2023-12-22T10:52:57;99380.16;;;3.26;100.00
59951;BME280;45812;53.540;9.774;2023-12-22T10:55:22;99430.63;;;3.12;100.00
59951;BME280;45812;53.540;9.774;2023-12-22T10:57:48;99412.97;;;3.04;100.00
59951;BME280;45812;53.540;9.774;2023-12-22T11:00:15;99415.50;;;2.96;100.00
59951;BME280;45812;53.540;9.774;2023-12-22T11:02:42;99421.88;;;2.93;100.00
59951;BME280;45812;53.540;9.774;2023-12-22T11:05:10;99425.69;;;2.81;100.00
59951;BME280;45812;53.540;9.774;2023-12-22T11:07:37;99417.84;;;2.71;100.00
59951;BME280;45812;53.540;9.774;2023-12-22T11:10:04;99411.25;;;2.67;100.00
59951;BME280;45812;53.540;9.774;2023-12-22T11:12:38;99453.03;;;2.61;100.00
59951;BME280;45812;53.540;9.774;2023-12-22T11:15:04;99409.94;;;2.54;100.00
59951;BME280;45812;53.540;9.774;2023-12-22T11:17:33;99425.47;;;2.37;100.00
59951;BME280;45812;53.540;9.774;2023-12-22T11:20:01;99409.31;;;2.32;100.00
59951;BME280;45812;53.540;9.774;2023-12-22T11:22:28;99398.25;;;2.38;100.00
59951;BME280;45812;53.540;9.774;2023-12-22T11:24:54;99390.72;;;2.53;100.00
59951;BME280;45812;53.540;9.774;2023-12-22T11:27:20;99397.16;;;2.59;100.00
59951;BME280;45812;53.540;9.774;2023-12-22T11:29:49;99387.50;;;2.59;100.00
59951;BME280;45812;53.540;9.774;2023-12-22T11:32:15;99374.50;;;2.58;100.00
59951;BME280;45812;53.540;9.774;2023-12-22T11:34:42;99379.09;;;2.56;100.00
59951;BME280;45812;53.540;9.774;2023-12-22T11:37:11;99394.53;;;2.59;100.00
59951;BME280;45812;53.540;9.774;2023-12-22T11:39:36;99386.78;;;2.67;100.00
59951;BME280;45812;53.540;9.774;2023-12-22T11:42:02;99397.06;;;2.78;100.00
59951;BME280;45812;53.540;9.774;2023-12-22T11:44:28;99385.47;;;2.81;100.00
59951;BME280;45812;53.540;9.774;2023-12-22T11:47:07;99375.47;;;2.84;100.00
59951;BME280;45812;53.540;9.774;2023-12-22T11:49:37;99383.06;;;2.87;100.00
59951;BME280;45812;53.540;9.774;2023-12-22T11:52:15;99370.75;;;2.88;100.00
59951;BME280;45812;53.540;9.774;2023-12-22T11:54:54;99366.63;;;3.21;100.00
59951;BME280;45812;53.540;9.774;2023-12-22T11:59:55;99358.56;;;4.10;100.00
59951;BME280;45812;53.540;9.774;2023-12-22T12:02:20;99372.16;;;4.05;100.00
59951;BME280;45812;53.540;9.774;2023-12-22T12:04:50;99361.91;;;3.94;100.00
59951;BME280;45812;53.540;9.774;2023-12-22T12:07:44;99363.56;;;3.95;100.00
59951;BME280;45812;53.540;9.774;2023-12-22T12:10:10;99376.41;;;3.98;100.00
59951;BME280;45812;53.540;9.774;2023-12-22T12:12:36;99368.69;;;3.97;100.00
59951;BME280;45812;53.540;9.774;2023-12-22T12:15:17;99362.38;;;3.89;100.00
59951;BME280;45812;53.540;9.774;2023-12-22T12:17:43;99371.47;;;3.95;100.00
59951;BME280;45812;53.540;9.774;2023-12-22T12:20:10;99360.38;;;4.09;100.00
59951;BME280;45812;53.540;9.774;2023-12-22T12:22:36;99364.72;;;4.26;100.00
59951;BME280;45812;53.540;9.774;2023-12-22T12:25:11;99364.75;;;4.35;100.00
59951;BME280;45812;53.540;9.774;2023-12-22T12:27:37;99361.31;;;4.34;100.00
59951;BME280;45812;53.540;9.774;2023-12-22T12:30:09;99360.81;;;4.31;100.00
59951;BME280;45812;53.540;9.774;2023-12-22T12:32:36;99363.13;;;4.34;100.00
59951;BME280;45812;53.540;9.774;2023-12-22T12:35:01;99355.22;;;4.34;100.00
59951;BME280;45812;53.540;9.774;2023-12-22T12:37:27;99362.78;;;4.37;100.00
59951;BME280;45812;53.540;9.774;2023-12-22T12:39:56;99359.34;;;4.36;100.00
59951;BME280;45812;53.540;9.774;2023-12-22T12:42:24;99355.56;;;4.39;100.00
59951;BME280;45812;53.540;9.774;2023-12-22T12:44:52;99354.56;;;4.40;100.00
59951;BME280;45812;53.540;9.774;2023-12-22T12:47:17;99356.84;;;4.35;100.00
59951;BME280;45812;53.540;9.774;2023-12-22T12:49:43;99365.91;;;4.32;100.00
59951;BME280;45812;53.540;9.774;2023-12-22T12:52:14;99359.97;;;4.30;100.00
59951;BME280;45812;53.540;9.774;2023-12-22T12:54:40;99352.91;;;4.31;100.00
59951;BME280;45812;53.540;9.774;2023-12-22T12:57:06;99353.06;;;4.29;100.00
59951;BME280;45812;53.540;9.774;2023-12-22T12:59:31;99356.81;;;4.26;100.00
59951;BME280;45812;53.540;9.774;2023-12-22T13:01:56;99364.72;;;4.26;100.00